Time;durP1;ratioP1;P1;durP2;ratioP2;P2;SDS_P1;SDS_P2;PMS_P1;PMS_P2;Temp;Humidity;BMP_temperature;BMP_pressure;BME280_temperature;BME280_humidity;BME280_pressure;Samples;Min_cycle;Max_cycle;Signal;HPM_P1;HPM_P2
2021/01/21 00:00:20;;;;;;;6.43;3.33;;;10.80;99.90;;;;;;5077028;28;20024;-89
2021/01/21 00:02:46;;;;;;;9.07;3.33;;;10.90;99.90;;;;;;5094570;28;20453;-88
2021/01/21 00:05:12;;;;;;;8.07;3.95;;;10.80;99.90;;;;;;5042633;28;20031;-88
2021/01/21 00:07:38;;;;;;;4.80;3.42;;;10.80;99.90;;;;;;5075266;28;20362;-89
2021/01/21 00:10:04;;;;;;;3.92;3.10;;;10.80;99.90;;;;;;5075509;28;20042;-89
2021/01/21 00:12:30;;;;;;;9.25;3.25;;;10.80;99.90;;;;;;5058662;28;20035;-88
2021/01/21 00:14:55;;;;;;;5.88;3.20;;;10.80;99.90;;;;;;5042535;28;20448;-89
2021/01/21 00:17:22;;;;;;;4.20;3.20;;;10.80;99.90;;;;;;5059803;28;20028;-89
2021/01/21 00:19:48;;;;;;;5.53;3.00;;;10.70;99.90;;;;;;5078515;28;20436;-88
2021/01/21 00:22:13;;;;;;;5.20;3.22;;;10.70;99.90;;;;;;5074320;28;20024;-89
2021/01/21 00:24:42;;;;;;;5.45;3.45;;;10.70;99.90;;;;;;5054314;28;20029;-88
2021/01/21 00:27:08;;;;;;;7.47;3.22;;;10.70;99.90;;;;;;5076576;28;20038;-89
2021/01/21 00:29:33;;;;;;;5.75;3.10;;;10.70;99.90;;;;;;5062013;28;20040;-89
2021/01/21 00:31:59;;;;;;;6.10;2.95;;;10.70;99.90;;;;;;5062663;28;20024;-88
2021/01/21 00:34:25;;;;;;;4.55;3.13;;;10.70;99.90;;;;;;5043619;28;20047;-87
2021/01/21 00:36:51;;;;;;;6.07;2.60;;;10.80;99.90;;;;;;5080065;28;20028;-89
2021/01/21 00:39:17;;;;;;;9.60;3.47;;;10.80;99.90;;;;;;5063241;28;20039;-89
2021/01/21 00:41:42;;;;;;;4.53;2.92;;;10.80;99.90;;;;;;5062525;28;20024;-88
2021/01/21 00:44:08;;;;;;;5.72;2.80;;;10.80;99.90;;;;;;5045862;28;20028;-87
2021/01/21 00:46:33;;;;;;;7.88;3.03;;;10.80;99.90;;;;;;5079151;28;20489;-87
2021/01/21 00:48:59;;;;;;;3.53;2.83;;;10.80;99.90;;;;;;5045585;28;20039;-86
2021/01/21 00:51:26;;;;;;;9.57;3.58;;;10.80;99.90;;;;;;5079163;28;20389;-86
2021/01/21 00:53:52;;;;;;;3.75;2.47;;;10.80;99.90;;;;;;5062665;28;20031;-87
2021/01/21 00:56:19;;;;;;;5.68;2.92;;;10.80;99.90;;;;;;5062398;28;20028;-87
2021/01/21 00:58:45;;;;;;;5.50;2.70;;;10.80;99.90;;;;;;5062522;28;20466;-87
2021/01/21 01:01:10;;;;;;;7.05;2.70;;;10.80;99.90;;;;;;5061996;28;20032;-86
2021/01/21 01:03:39;;;;;;;6.53;3.55;;;10.80;99.90;;;;;;5078619;28;20077;-87
2021/01/21 01:06:07;;;;;;;5.18;3.20;;;10.70;99.90;;;;;;5078629;28;20390;-87
2021/01/21 01:08:34;;;;;;;6.57;2.78;;;10.60;99.90;;;;;;5096860;28;20024;-86
2021/01/21 01:11:00;;;;;;;4.63;3.13;;;10.50;99.90;;;;;;5061910;28;20076;-87
2021/01/21 01:13:26;;;;;;;6.25;3.45;;;10.40;99.90;;;;;;5045158;28;20038;-86
2021/01/21 01:15:51;;;;;;;6.88;3.55;;;10.30;99.90;;;;;;5078629;28;20428;-87
2021/01/21 01:18:17;;;;;;;6.95;3.03;;;10.20;99.90;;;;;;5078473;28;20032;-87
2021/01/21 01:20:43;;;;;;;4.88;3.33;;;10.10;99.90;;;;;;5078652;28;20028;-87
2021/01/21 01:23:08;;;;;;;5.22;3.20;;;10.00;99.90;;;;;;5078016;28;20490;-87
2021/01/21 01:25:35;;;;;;;5.38;3.25;;;10.00;99.90;;;;;;5061273;28;20408;-87
2021/01/21 01:28:04;;;;;;;7.20;3.92;;;10.00;99.90;;;;;;5062209;28;20028;-87
2021/01/21 01:30:30;;;;;;;7.05;3.50;;;10.00;99.90;;;;;;5062034;28;20036;-88
2021/01/21 01:32:55;;;;;;;5.47;3.17;;;9.90;99.90;;;;;;5062533;28;20032;-87
2021/01/21 01:35:21;;;;;;;5.43;3.28;;;9.90;99.90;;;;;;5096546;28;20024;-86
2021/01/21 01:37:47;;;;;;;7.90;3.30;;;9.90;99.90;;;;;;5096628;28;20116;-88
2021/01/21 01:40:14;;;;;;;9.98;3.30;;;9.90;99.90;;;;;;5044955;28;20043;-87
2021/01/21 01:42:41;;;;;;;10.10;4.25;;;9.90;99.90;;;;;;5077600;28;20035;-87
2021/01/21 01:45:08;;;;;;;5.85;3.03;;;9.90;99.90;;;;;;5041215;28;20060;-87
2021/01/21 01:47:38;;;;;;;7.18;2.75;;;9.90;99.90;;;;;;5074290;28;20043;-87
2021/01/21 01:50:04;;;;;;;10.30;3.40;;;9.90;99.90;;;;;;5058147;28;20123;-87
2021/01/21 01:52:35;;;;;;;4.78;2.58;;;10.00;99.90;;;;;;5041143;28;20478;-87
2021/01/21 01:55:01;;;;;;;7.03;2.85;;;10.00;99.90;;;;;;5058785;28;20032;-87
2021/01/21 01:57:28;;;;;;;6.25;2.70;;;10.10;99.90;;;;;;5057654;28;20116;-88
2021/01/21 01:59:59;;;;;;;7.90;3.03;;;10.20;99.90;;;;;;5074400;28;20112;-86
2021/01/21 02:02:25;;;;;;;11.05;3.15;;;10.20;99.90;;;;;;5074268;28;20386;-88
2021/01/21 02:04:50;;;;;;;7.65;3.55;;;10.30;99.90;;;;;;5074630;28;20024;-87
2021/01/21 02:07:16;;;;;;;7.05;3.20;;;10.30;99.90;;;;;;5074203;28;20417;-88
2021/01/21 02:09:42;;;;;;;6.80;2.55;;;10.50;99.90;;;;;;5074112;28;20033;-87
2021/01/21 02:12:28;;;;;;;7.10;2.85;;;10.60;99.90;;;;;;5057636;28;20028;-87
2021/01/21 02:15:35;;;;;;;5.38;2.42;;;10.70;99.90;;;;;;5074383;28;20043;-87
2021/01/21 02:18:04;;;;;;;5.03;2.63;;;10.80;99.90;;;;;;5075647;28;20024;-87
2021/01/21 02:20:46;;;;;;;3.90;2.42;;;10.80;99.90;;;;;;5086120;28;20092;-90
2021/01/21 02:23:53;;;;;;;8.23;2.40;;;10.90;99.90;;;;;;5097833;28;20029;-87
2021/01/21 02:26:28;;;;;;;4.05;2.33;;;10.90;99.90;;;;;;5097710;28;20039;-84
2021/01/21 02:29:07;;;;;;;5.28;2.22;;;11.00;99.90;;;;;;5079842;28;20031;-86
2021/01/21 02:31:35;;;;;;;4.75;2.65;;;11.00;99.90;;;;;;5075333;28;20107;-87
2021/01/21 02:34:11;;;;;;;4.47;2.13;;;10.80;99.90;;;;;;5074364;28;20470;-88
2021/01/21 02:36:40;;;;;;;3.28;2.25;;;10.70;99.90;;;;;;5073793;28;20082;-88
2021/01/21 02:39:09;;;;;;;6.60;2.55;;;10.60;99.90;;;;;;5056804;28;20069;-88
2021/01/21 02:41:35;;;;;;;7.53;2.58;;;10.60;99.90;;;;;;5073380;28;20514;-88
2021/01/21 02:44:02;;;;;;;5.45;2.45;;;10.60;99.90;;;;;;5056551;28;20032;-87
2021/01/21 02:46:27;;;;;;;6.28;2.25;;;10.70;99.90;;;;;;5072961;28;20486;-88
2021/01/21 02:48:55;;;;;;;5.70;2.63;;;10.70;99.90;;;;;;5074763;28;20107;-87
2021/01/21 02:51:40;;;;;;;8.57;2.40;;;10.70;99.90;;;;;;5074463;28;20039;-88
2021/01/21 02:54:24;;;;;;;7.47;3.45;;;10.60;99.90;;;;;;5073264;28;20474;-89
2021/01/21 02:56:55;;;;;;;7.50;3.05;;;10.40;99.90;;;;;;5073467;28;20036;-88
2021/01/21 02:59:23;;;;;;;11.23;3.13;;;10.30;99.90;;;;;;5073851;28;20020;-88
2021/01/21 03:01:51;;;;;;;8.90;3.80;;;10.20;99.90;;;;;;5056667;28;20085;-89
2021/01/21 03:04:19;;;;;;;7.13;3.17;;;10.10;99.90;;;;;;5073177;28;20436;-88
2021/01/21 03:06:45;;;;;;;6.95;3.20;;;10.10;99.90;;;;;;5073956;28;20332;-88
2021/01/21 03:09:11;;;;;;;6.40;3.28;;;10.00;99.90;;;;;;5072575;28;20024;-89
2021/01/21 03:11:36;;;;;;;7.40;3.47;;;10.00;99.90;;;;;;5039491;28;20102;-88
2021/01/21 03:14:02;;;;;;;7.20;3.60;;;9.90;99.90;;;;;;5056346;28;20120;-87
2021/01/21 03:16:28;;;;;;;5.43;3.58;;;9.90;99.90;;;;;;5039673;28;20120;-88
2021/01/21 03:18:53;;;;;;;9.02;3.50;;;9.90;99.90;;;;;;5072612;28;20033;-88
2021/01/21 03:21:19;;;;;;;9.70;3.67;;;9.90;99.90;;;;;;5055986;28;20460;-88
2021/01/21 03:23:46;;;;;;;8.35;3.70;;;9.90;99.90;;;;;;5072862;28;20255;-88
2021/01/21 03:26:12;;;;;;;9.02;3.90;;;9.90;99.90;;;;;;5073499;28;20024;-89
2021/01/21 03:28:39;;;;;;;12.38;3.88;;;10.00;99.90;;;;;;5072327;28;20480;-89
2021/01/21 03:31:05;;;;;;;12.32;2.97;;;9.30;99.90;;;;;;5057059;28;20127;-89
2021/01/21 03:33:30;;;;;;;19.90;3.20;;;9.00;99.90;;;;;;5084530;28;20051;-91
2021/01/21 03:35:56;;;;;;;19.92;3.78;;;8.50;99.90;;;;;;5063007;28;20063;-89
2021/01/21 03:38:22;;;;;;;23.63;4.93;;;8.40;99.90;;;;;;5058348;28;20052;-88
2021/01/21 03:40:47;;;;;;;29.90;5.28;;;8.40;99.90;;;;;;5073186;28;20038;-89
2021/01/21 03:43:13;;;;;;;35.97;5.93;;;8.40;99.90;;;;;;5072658;28;20347;-89
2021/01/21 03:45:39;;;;;;;21.25;4.70;;;8.30;99.90;;;;;;5072015;28;20079;-88
2021/01/21 03:48:07;;;;;;;26.15;5.10;;;8.40;99.90;;;;;;5055979;28;20127;-89
2021/01/21 03:50:33;;;;;;;24.60;5.85;;;8.40;99.90;;;;;;5072171;28;20062;-88
2021/01/21 03:52:58;;;;;;;32.15;5.93;;;8.30;99.90;;;;;;5055816;28;20029;-88
2021/01/21 03:55:24;;;;;;;28.70;6.30;;;8.20;99.90;;;;;;5072222;28;20071;-88
2021/01/21 03:57:49;;;;;;;39.65;6.70;;;8.20;99.90;;;;;;5071980;28;20037;-88
2021/01/21 04:00:16;;;;;;;36.58;7.60;;;8.20;99.90;;;;;;5055671;28;20040;-88
2021/01/21 04:02:41;;;;;;;39.65;8.38;;;8.20;99.90;;;;;;5055451;28;20219;-88
2021/01/21 04:05:07;;;;;;;36.33;6.65;;;8.20;99.90;;;;;;5055276;28;20067;-88
2021/01/21 04:07:33;;;;;;;37.90;7.30;;;8.20;99.90;;;;;;5038653;28;20050;-89
2021/01/21 04:09:58;;;;;;;34.35;6.57;;;8.10;99.90;;;;;;5054368;28;20036;-88
2021/01/21 04:12:24;;;;;;;42.90;8.07;;;8.10;99.90;;;;;;5039043;28;20037;-88
2021/01/21 04:14:50;;;;;;;53.58;8.00;;;8.00;99.90;;;;;;5040902;28;20029;-88
2021/01/21 04:17:15;;;;;;;39.50;7.97;;;8.00;99.90;;;;;;5076145;28;20449;-86
2021/01/21 04:19:41;;;;;;;33.95;7.32;;;8.00;99.90;;;;;;5072926;28;20111;-88
2021/01/21 04:22:06;;;;;;;52.55;8.75;;;8.10;99.90;;;;;;5073906;28;20029;-88
2021/01/21 04:24:32;;;;;;;44.78;8.82;;;8.20;99.90;;;;;;5055891;28;20033;-88
2021/01/21 04:26:58;;;;;;;49.72;9.13;;;8.20;99.90;;;;;;5055098;28;20501;-87
2021/01/21 04:29:23;;;;;;;51.83;9.38;;;8.10;99.90;;;;;;5055174;28;20037;-87
2021/01/21 04:31:49;;;;;;;56.22;10.70;;;8.00;99.90;;;;;;5071408;28;20444;-87
2021/01/21 04:34:15;;;;;;;50.83;10.50;;;8.00;99.90;;;;;;5054980;28;20129;-87
2021/01/21 04:36:40;;;;;;;41.20;8.35;;;8.00;99.90;;;;;;5071330;28;20025;-88
2021/01/21 04:39:06;;;;;;;46.17;8.98;;;8.00;99.90;;;;;;5038462;28;20462;-88
2021/01/21 04:41:33;;;;;;;44.35;8.82;;;8.00;99.90;;;;;;5055253;28;20040;-88
2021/01/21 04:43:59;;;;;;;28.90;6.47;;;7.90;99.90;;;;;;5071531;28;20029;-88
2021/01/21 04:46:25;;;;;;;29.15;7.00;;;7.90;99.90;;;;;;5090375;28;20083;-88
2021/01/21 04:48:51;;;;;;;22.73;4.82;;;7.80;99.90;;;;;;5058472;28;20028;-87
2021/01/21 04:51:17;;;;;;;22.02;5.53;;;7.70;99.90;;;;;;5057979;28;20040;-87
2021/01/21 04:53:57;;;;;;;22.77;5.18;;;7.60;99.90;;;;;;5074786;28;20028;-88
2021/01/21 04:56:28;;;;;;;21.60;5.32;;;7.60;99.90;;;;;;5075147;28;20031;-87
2021/01/21 04:59:02;;;;;;;25.30;4.80;;;7.60;99.90;;;;;;5075035;28;20024;-87
2021/01/21 05:01:30;;;;;;;29.63;5.45;;;7.60;99.90;;;;;;5075035;28;20094;-87
2021/01/21 05:03:56;;;;;;;22.27;4.20;;;7.50;99.90;;;;;;5057987;28;20089;-87
2021/01/21 05:06:23;;;;;;;24.48;3.67;;;7.50;99.90;;;;;;5075028;28;20550;-87
2021/01/21 05:08:51;;;;;;;15.30;3.03;;;7.20;99.90;;;;;;5074833;28;20046;-87
2021/01/21 05:11:17;;;;;;;15.95;3.10;;;7.10;99.90;;;;;;5058138;28;20393;-87
2021/01/21 05:13:42;;;;;;;19.35;3.10;;;6.90;99.90;;;;;;5057874;28;20028;-89
2021/01/21 05:16:08;;;;;;;18.05;3.63;;;6.60;99.90;;;;;;5058414;28;20035;-87
2021/01/21 05:18:36;;;;;;;14.18;3.45;;;6.40;99.90;;;;;;5058197;28;20388;-87
2021/01/21 05:21:08;;;;;;;19.50;3.95;;;6.40;99.90;;;;;;5075076;28;20035;-87
2021/01/21 05:23:34;;;;;;;26.50;4.63;;;6.40;99.90;;;;;;5078783;28;20046;-87
2021/01/21 05:26:01;;;;;;;26.63;4.95;;;6.40;99.90;;;;;;5061661;28;20537;-87
2021/01/21 05:28:28;;;;;;;22.95;4.88;;;6.50;99.90;;;;;;5061853;28;20444;-87
2021/01/21 05:30:58;;;;;;;26.45;5.15;;;6.50;99.90;;;;;;5078154;28;20032;-87
2021/01/21 05:33:24;;;;;;;32.70;5.47;;;6.60;99.90;;;;;;5096585;28;20024;-87
2021/01/21 05:35:53;;;;;;;22.27;4.40;;;6.60;99.90;;;;;;5078454;28;20130;-87
2021/01/21 05:38:21;;;;;;;20.50;4.13;;;6.50;99.90;;;;;;5096705;28;20032;-87
2021/01/21 05:40:47;;;;;;;20.15;4.20;;;6.60;99.90;;;;;;5078525;28;20039;-88
2021/01/21 05:43:14;;;;;;;19.23;3.70;;;6.70;99.90;;;;;;5078828;28;20409;-87
2021/01/21 05:45:44;;;;;;;22.52;3.85;;;6.80;99.90;;;;;;5061387;28;20048;-88
2021/01/21 05:48:11;;;;;;;28.00;5.18;;;6.80;99.90;;;;;;5078645;28;20114;-87
2021/01/21 05:50:37;;;;;;;23.08;4.68;;;6.80;99.90;;;;;;5100098;28;20053;-87
2021/01/21 05:53:06;;;;;;;21.27;5.25;;;6.90;99.90;;;;;;5102313;28;20064;-88
2021/01/21 05:55:35;;;;;;;26.63;5.97;;;7.00;99.90;;;;;;5090495;28;20035;-87
2021/01/21 05:58:01;;;;;;;32.38;4.72;;;6.90;99.90;;;;;;5063380;28;20036;-88
2021/01/21 06:00:27;;;;;;;27.23;4.55;;;7.00;99.90;;;;;;5046856;28;20062;-88
2021/01/21 06:02:53;;;;;;;22.85;5.65;;;6.90;99.90;;;;;;5080341;28;20024;-84
2021/01/21 06:05:21;;;;;;;25.48;5.68;;;7.00;99.90;;;;;;5082701;28;20028;-88
2021/01/21 06:07:48;;;;;;;26.05;5.55;;;7.00;99.90;;;;;;5080746;28;20032;-88
2021/01/21 06:10:15;;;;;;;27.15;4.65;;;7.00;99.90;;;;;;5097791;28;20035;-88
2021/01/21 06:12:59;;;;;;;22.15;6.18;;;7.00;99.90;;;;;;5080628;28;20032;-87
2021/01/21 06:15:26;;;;;;;23.77;4.63;;;6.90;99.90;;;;;;5064936;28;20028;-87
2021/01/21 06:17:51;;;;;;;29.05;5.57;;;6.90;99.90;;;;;;5066274;28;20039;-87
2021/01/21 06:20:17;;;;;;;21.20;5.03;;;6.90;99.90;;;;;;5075753;28;20105;-87
2021/01/21 06:22:45;;;;;;;21.52;4.60;;;6.90;99.90;;;;;;5119436;28;20012;-87
2021/01/21 06:25:20;;;;;;;28.98;4.68;;;6.90;99.90;;;;;;5102741;28;20016;-89
2021/01/21 06:27:47;;;;;;;22.33;4.43;;;6.80;99.90;;;;;;5102197;28;20028;-87
2021/01/21 06:30:17;;;;;;;25.50;5.32;;;6.80;99.90;;;;;;5098569;28;20047;-87
2021/01/21 06:33:06;;;;;;;18.90;4.97;;;6.80;99.90;;;;;;5092643;28;20027;-88
2021/01/21 06:35:39;;;;;;;21.27;4.00;;;6.70;99.90;;;;;;5088089;28;20024;-87
2021/01/21 06:38:07;;;;;;;19.30;4.35;;;6.70;99.90;;;;;;5117784;28;20020;-88
2021/01/21 06:40:35;;;;;;;19.73;3.83;;;6.80;99.90;;;;;;5120088;28;20047;-87
2021/01/21 06:43:10;;;;;;;23.75;4.43;;;6.80;99.90;;;;;;5102570;28;20089;-87
2021/01/21 06:45:38;;;;;;;25.48;4.68;;;6.80;99.90;;;;;;5101326;28;20059;-88
2021/01/21 06:48:05;;;;;;;20.02;5.22;;;6.80;99.90;;;;;;5084356;28;20016;-88
2021/01/21 06:50:31;;;;;;;22.50;5.07;;;6.80;99.90;;;;;;5099548;28;20016;-87
2021/01/21 06:53:04;;;;;;;19.70;6.13;;;6.80;99.90;;;;;;5078387;28;20024;-88
2021/01/21 06:55:31;;;;;;;28.33;5.30;;;6.80;99.90;;;;;;5095041;28;20485;-88
2021/01/21 06:57:57;;;;;;;20.65;4.55;;;6.80;99.90;;;;;;5060430;28;20031;-87
2021/01/21 07:00:34;;;;;;;19.42;5.85;;;6.80;99.90;;;;;;5060172;28;20032;-87
2021/01/21 07:03:01;;;;;;;17.27;4.30;;;6.80;99.90;;;;;;5077268;28;20044;-86
2021/01/21 07:05:27;;;;;;;35.08;6.75;;;6.80;99.90;;;;;;5077622;28;20032;-87
2021/01/21 07:07:53;;;;;;;23.83;5.05;;;6.80;99.90;;;;;;5076871;28;20060;-87
2021/01/21 07:10:41;;;;;;;14.70;4.47;;;6.80;99.90;;;;;;5076696;28;20075;-87
2021/01/21 07:13:17;;;;;;;19.58;4.07;;;6.80;99.90;;;;;;5076766;28;20028;-87
2021/01/21 07:15:50;;;;;;;21.80;5.20;;;6.70;99.90;;;;;;5077087;28;20024;-88
2021/01/21 07:18:22;;;;;;;19.75;4.93;;;6.70;99.90;;;;;;5077010;28;20036;-86
2021/01/21 07:21:22;;;;;;;16.73;4.57;;;6.70;99.90;;;;;;5077442;28;20024;-86
2021/01/21 07:23:49;;;;;;;27.50;5.18;;;6.70;99.90;;;;;;5076641;28;20035;-86
2021/01/21 07:26:26;;;;;;;26.55;4.55;;;6.70;99.90;;;;;;5077003;28;20476;-87
2021/01/21 07:28:54;;;;;;;21.27;4.10;;;6.70;99.90;;;;;;5077873;28;20073;-85
2021/01/21 07:31:20;;;;;;;26.50;5.03;;;6.70;99.90;;;;;;5076293;28;20039;-83
2021/01/21 07:33:46;;;;;;;18.77;4.97;;;6.70;99.90;;;;;;5095453;28;20359;-87
2021/01/21 07:36:30;;;;;;;24.13;4.72;;;6.70;99.90;;;;;;5076233;28;20028;-86
2021/01/21 07:38:56;;;;;;;28.42;4.97;;;6.70;99.90;;;;;;5097031;28;20056;-85
2021/01/21 07:41:40;;;;;;;24.88;5.43;;;6.70;99.90;;;;;;5062577;28;20464;-85
2021/01/21 07:44:06;;;;;;;16.83;3.55;;;6.70;99.90;;;;;;5111927;28;20035;-85
2021/01/21 07:46:32;;;;;;;17.10;3.95;;;6.60;99.90;;;;;;5107852;28;20056;-85
2021/01/21 07:49:26;;;;;;;16.80;4.25;;;6.60;99.90;;;;;;5076221;28;20028;-87
2021/01/21 07:52:03;;;;;;;17.45;3.95;;;6.60;99.90;;;;;;5059724;28;20127;-86
2021/01/21 07:54:31;;;;;;;21.25;3.97;;;6.70;99.90;;;;;;5062237;28;20028;-85
2021/01/21 07:56:57;;;;;;;19.52;4.40;;;6.70;99.90;;;;;;5063361;28;20060;-84
2021/01/21 07:59:23;;;;;;;22.33;5.00;;;6.70;99.90;;;;;;5102915;28;20024;-85
2021/01/21 08:01:59;;;;;;;21.85;5.35;;;6.70;99.90;;;;;;5059646;28;20028;-86
2021/01/21 08:04:25;;;;;;;23.73;4.00;;;6.70;99.90;;;;;;5078035;28;20028;-87
2021/01/21 08:06:56;;;;;;;22.70;4.53;;;6.80;99.90;;;;;;5094802;28;20093;-85
2021/01/21 08:09:22;;;;;;;18.33;4.90;;;6.80;99.90;;;;;;5059888;28;20028;-86
2021/01/21 08:11:49;;;;;;;16.85;4.28;;;6.80;99.90;;;;;;5096463;28;20024;-87
2021/01/21 08:14:16;;;;;;;18.85;4.40;;;6.80;99.90;;;;;;5095012;28;20032;-86
2021/01/21 08:16:42;;;;;;;29.05;6.30;;;6.90;99.90;;;;;;5050287;28;20371;-86
2021/01/21 08:19:08;;;;;;;21.88;5.15;;;6.80;99.90;;;;;;5078784;28;20028;-87
2021/01/21 08:21:34;;;;;;;21.48;4.72;;;6.90;99.90;;;;;;5059867;28;20024;-89
2021/01/21 08:24:02;;;;;;;22.05;4.80;;;6.80;99.90;;;;;;5059090;28;20432;-86
2021/01/21 08:26:29;;;;;;;19.83;4.47;;;6.90;99.90;;;;;;5076148;28;20025;-87
2021/01/21 08:28:55;;;;;;;31.42;4.25;;;6.90;99.90;;;;;;5058993;28;20024;-87
2021/01/21 08:31:33;;;;;;;27.83;5.93;;;6.90;99.90;;;;;;5041837;28;20040;-87
2021/01/21 08:34:00;;;;;;;24.20;5.40;;;6.80;99.90;;;;;;5093211;28;20099;-86
2021/01/21 08:36:26;;;;;;;23.42;5.50;;;6.90;99.90;;;;;;5058365;28;20029;-86
2021/01/21 08:38:52;;;;;;;37.85;5.63;;;6.90;99.90;;;;;;5075049;28;20024;-87
2021/01/21 08:41:19;;;;;;;28.92;5.40;;;6.90;99.90;;;;;;5075027;28;20034;-87
2021/01/21 08:43:46;;;;;;;26.15;5.43;;;7.00;99.90;;;;;;5058571;28;20493;-88
2021/01/21 08:46:19;;;;;;;32.30;5.95;;;6.90;99.90;;;;;;5075591;28;20051;-87
2021/01/21 08:48:45;;;;;;;24.63;5.43;;;7.00;99.90;;;;;;5093073;28;20070;-87
2021/01/21 08:51:35;;;;;;;25.58;5.25;;;7.10;99.90;;;;;;5075543;28;20062;-86
2021/01/21 08:54:19;;;;;;;20.17;4.53;;;7.20;99.90;;;;;;5076604;28;20024;-87
2021/01/21 08:57:06;;;;;;;25.67;4.45;;;7.30;99.90;;;;;;5077478;28;20119;-86
2021/01/21 08:59:32;;;;;;;22.23;5.57;;;7.60;99.90;;;;;;5078981;28;20032;-87
2021/01/21 09:01:58;;;;;;;25.58;4.97;;;7.90;99.90;;;;;;5079253;28;20523;-86
2021/01/21 09:04:26;;;;;;;21.90;4.78;;;8.00;99.90;;;;;;5097597;28;20053;-88
2021/01/21 09:06:55;;;;;;;23.95;5.25;;;8.00;99.90;;;;;;5062987;28;20051;-87
2021/01/21 09:09:27;;;;;;;19.23;4.03;;;7.90;99.90;;;;;;5063270;28;20035;-87
2021/01/21 09:11:53;;;;;;;26.58;5.22;;;7.70;99.90;;;;;;5083160;28;20039;-87
2021/01/21 09:14:19;;;;;;;21.50;5.10;;;7.60;99.90;;;;;;5082598;28;20036;-87
2021/01/21 09:16:55;;;;;;;36.35;6.10;;;7.50;99.90;;;;;;5063397;28;20462;-91
2021/01/21 09:19:26;;;;;;;24.27;5.75;;;7.50;99.90;;;;;;5078198;28;20070;-86
2021/01/21 09:21:59;;;;;;;37.28;5.55;;;7.50;99.90;;;;;;5078675;28;20028;-87
2021/01/21 09:24:26;;;;;;;19.20;4.68;;;7.50;99.90;;;;;;5078722;28;20046;-88
2021/01/21 09:27:16;;;;;;;19.20;4.88;;;7.50;99.90;;;;;;5096955;28;20028;-86
2021/01/21 09:29:56;;;;;;;22.80;4.57;;;7.60;99.90;;;;;;5078269;28;20032;-87
2021/01/21 09:32:33;;;;;;;23.63;6.25;;;7.70;99.90;;;;;;5078281;28;20504;-87
2021/01/21 09:35:06;;;;;;;27.30;6.07;;;7.70;99.90;;;;;;5076660;28;20069;-87
2021/01/21 09:37:41;;;;;;;22.23;5.18;;;7.60;99.90;;;;;;5093803;28;20034;-87
2021/01/21 09:40:09;;;;;;;23.58;4.35;;;7.60;99.90;;;;;;5095202;28;20026;-86
2021/01/21 09:42:34;;;;;;;19.90;4.00;;;7.50;99.90;;;;;;5061168;28;20038;-88
2021/01/21 09:45:01;;;;;;;18.30;4.22;;;7.40;99.90;;;;;;5042431;28;20053;-86
2021/01/21 09:47:27;;;;;;;13.73;4.25;;;7.40;99.90;;;;;;5075453;28;20064;-87
2021/01/21 09:49:52;;;;;;;27.27;4.80;;;7.40;99.90;;;;;;5060046;28;20032;-85
2021/01/21 09:52:19;;;;;;;16.90;4.05;;;7.40;99.90;;;;;;5060052;28;20035;-86
2021/01/21 09:54:44;;;;;;;20.45;4.68;;;7.40;99.90;;;;;;5077100;28;20029;-86
2021/01/21 09:57:11;;;;;;;18.42;4.28;;;7.30;99.90;;;;;;5077087;28;20085;-86
2021/01/21 09:59:37;;;;;;;24.88;5.20;;;7.40;99.90;;;;;;5075937;28;20032;-88
2021/01/21 10:02:03;;;;;;;15.95;4.15;;;7.50;99.90;;;;;;5076416;28;20029;-87
2021/01/21 10:04:29;;;;;;;15.55;3.53;;;7.50;99.90;;;;;;5075996;28;20037;-86
2021/01/21 10:06:55;;;;;;;11.25;4.00;;;7.50;99.90;;;;;;5076420;28;20115;-86
2021/01/21 10:09:20;;;;;;;17.08;3.72;;;7.50;99.90;;;;;;5075278;28;20036;-86
2021/01/21 10:11:46;;;;;;;16.42;3.80;;;7.50;99.90;;;;;;5042364;28;20032;-87
2021/01/21 10:14:12;;;;;;;19.23;4.15;;;7.60;99.90;;;;;;5059541;28;20036;-86
2021/01/21 10:16:39;;;;;;;19.73;4.20;;;7.70;99.90;;;;;;5060164;28;20032;-86
2021/01/21 10:19:06;;;;;;;17.88;4.07;;;7.70;99.90;;;;;;5059976;28;20122;-86
2021/01/21 10:21:32;;;;;;;16.27;3.50;;;7.80;99.90;;;;;;5077467;28;20051;-86
2021/01/21 10:23:58;;;;;;;14.30;3.45;;;7.80;99.90;;;;;;5076227;28;20036;-86
2021/01/21 10:26:23;;;;;;;25.92;5.28;;;7.80;99.90;;;;;;5077743;28;20035;-86
2021/01/21 10:28:49;;;;;;;21.02;4.63;;;7.80;99.90;;;;;;5059720;28;20029;-86
2021/01/21 10:31:15;;;;;;;20.60;4.55;;;7.80;99.90;;;;;;5059570;28;20372;-87
2021/01/21 10:33:43;;;;;;;20.20;4.32;;;7.70;99.90;;;;;;5058449;28;20036;-86
2021/01/21 10:36:09;;;;;;;20.88;5.43;;;7.70;99.90;;;;;;5076230;28;20028;-88
2021/01/21 10:38:36;;;;;;;21.05;5.10;;;7.70;99.90;;;;;;5060502;28;20328;-89
2021/01/21 10:41:02;;;;;;;20.17;4.07;;;7.70;99.90;;;;;;5084156;28;20055;-85
2021/01/21 10:43:27;;;;;;;13.02;3.53;;;7.70;99.90;;;;;;5073233;28;20055;-88
2021/01/21 10:45:56;;;;;;;15.75;3.67;;;7.80;99.90;;;;;;5077745;28;20052;-87
2021/01/21 10:48:21;;;;;;;22.13;5.00;;;7.80;99.90;;;;;;5073655;28;20431;-88
2021/01/21 10:50:47;;;;;;;22.33;4.03;;;7.90;99.90;;;;;;5073373;28;20120;-87
2021/01/21 10:53:13;;;;;;;18.67;4.63;;;8.00;99.90;;;;;;5073544;28;20040;-87
2021/01/21 10:55:39;;;;;;;19.33;4.70;;;7.90;99.90;;;;;;5073366;28;20394;-87
2021/01/21 10:58:05;;;;;;;15.35;3.40;;;7.90;99.90;;;;;;5073337;28;20029;-86
2021/01/21 11:00:30;;;;;;;16.85;3.05;;;7.80;99.90;;;;;;5056138;28;20032;-88
2021/01/21 11:02:57;;;;;;;17.15;3.08;;;7.90;99.90;;;;;;5059688;28;20040;-87
2021/01/21 11:05:22;;;;;;;16.50;3.80;;;7.80;99.90;;;;;;5045409;28;20032;-88
2021/01/21 11:07:48;;;;;;;11.70;3.45;;;7.80;99.90;;;;;;5076720;28;20115;-87
2021/01/21 11:10:14;;;;;;;13.20;2.63;;;7.70;99.90;;;;;;5057069;28;20077;-87
2021/01/21 11:12:39;;;;;;;12.25;3.30;;;7.80;99.90;;;;;;5071968;28;20429;-87
2021/01/21 11:15:06;;;;;;;10.65;3.15;;;7.90;99.90;;;;;;5055951;28;20040;-89
2021/01/21 11:17:31;;;;;;;18.33;3.92;;;7.90;99.90;;;;;;5056477;28;20032;-87
2021/01/21 11:19:57;;;;;;;12.50;3.35;;;8.00;99.90;;;;;;5056940;28;20044;-88
2021/01/21 11:22:24;;;;;;;16.92;3.85;;;8.00;99.90;;;;;;5056869;28;20125;-87
2021/01/21 11:24:51;;;;;;;15.95;3.22;;;8.00;99.90;;;;;;5080630;28;20462;-89
2021/01/21 11:27:17;;;;;;;21.38;3.58;;;8.10;99.90;;;;;;5056649;28;20071;-88
2021/01/21 11:29:44;;;;;;;17.15;3.53;;;8.10;99.90;;;;;;5073099;28;20075;-88
2021/01/21 11:32:10;;;;;;;10.20;3.30;;;8.10;99.90;;;;;;5077795;28;20035;-86
2021/01/21 11:34:36;;;;;;;13.82;3.30;;;8.00;99.90;;;;;;5078712;28;20029;-86
2021/01/21 11:37:01;;;;;;;12.77;3.50;;;8.00;99.90;;;;;;5074943;28;20036;-88
2021/01/21 11:39:27;;;;;;;21.92;4.07;;;8.00;99.90;;;;;;5074912;28;20032;-89
2021/01/21 11:41:53;;;;;;;10.98;3.15;;;8.00;99.90;;;;;;5074234;28;20025;-88
2021/01/21 11:44:19;;;;;;;12.18;2.92;;;8.00;99.90;;;;;;5074728;28;20051;-89
2021/01/21 11:46:45;;;;;;;11.88;3.30;;;8.10;99.90;;;;;;5076833;28;20082;-88
2021/01/21 11:49:11;;;;;;;13.43;3.35;;;8.20;99.90;;;;;;5078686;28;20025;-88
2021/01/21 11:51:37;;;;;;;11.65;3.00;;;8.20;99.90;;;;;;5059741;28;20041;-87
2021/01/21 11:54:03;;;;;;;13.20;3.00;;;8.30;99.90;;;;;;5060669;28;20075;-86
2021/01/21 11:56:28;;;;;;;12.93;3.05;;;8.30;99.90;;;;;;5073508;28;20077;-88
2021/01/21 11:58:54;;;;;;;16.52;3.78;;;8.30;99.90;;;;;;5056830;28;20025;-88
2021/01/21 12:01:20;;;;;;;13.13;3.00;;;8.30;99.90;;;;;;5073186;28;20036;-88
2021/01/21 12:03:54;;;;;;;13.05;3.88;;;8.30;99.90;;;;;;5060337;28;20033;-86
2021/01/21 12:06:19;;;;;;;11.70;3.10;;;8.40;99.90;;;;;;5058645;28;20032;-87
2021/01/21 12:08:45;;;;;;;10.30;3.33;;;8.30;99.90;;;;;;5040380;28;20035;-87
2021/01/21 12:11:10;;;;;;;13.85;3.15;;;8.30;99.90;;;;;;5080408;28;20037;-86
2021/01/21 12:13:36;;;;;;;11.93;2.65;;;8.30;99.90;;;;;;5055647;28;20036;-87
2021/01/21 12:16:02;;;;;;;12.77;2.97;;;8.30;99.90;;;;;;5074103;28;20024;-86
2021/01/21 12:18:28;;;;;;;14.95;3.15;;;8.40;99.90;;;;;;5074324;28;20442;-87
2021/01/21 12:20:54;;;;;;;8.43;2.75;;;8.40;99.90;;;;;;5059217;28;20040;-87
2021/01/21 12:23:24;;;;;;;23.38;4.38;;;8.40;99.90;;;;;;5069528;28;20111;-87
2021/01/21 12:25:49;;;;;;;14.60;3.00;;;8.40;99.90;;;;;;5056564;28;20035;-89
2021/01/21 12:28:19;;;;;;;10.48;3.38;;;8.50;99.90;;;;;;5065543;28;20024;-89
2021/01/21 12:31:06;;;;;;;19.00;3.05;;;8.60;99.90;;;;;;5086576;28;20036;-89
2021/01/21 12:34:00;;;;;;;;;;;;;;;;;;;;;
2021/01/21 12:36:56;;;;;;;17.05;3.55;;;8.70;99.90;;;;;;5094687;28;20063;-88
2021/01/21 12:39:40;;;;;;;16.75;4.10;;;8.80;99.90;;;;;;5092969;28;20028;-87
2021/01/21 12:42:23;;;;;;;19.85;3.70;;;8.80;99.90;;;;;;5090422;28;20036;-88
2021/01/21 12:44:49;;;;;;;14.40;2.67;;;8.80;99.90;;;;;;5082615;28;20059;-87
2021/01/21 12:47:20;;;;;;;15.43;3.20;;;8.80;99.90;;;;;;5087231;28;20032;-87
2021/01/21 12:49:46;;;;;;;11.48;2.70;;;8.80;99.90;;;;;;5066456;28;20493;-86
2021/01/21 12:52:14;;;;;;;13.43;2.75;;;8.80;99.90;;;;;;5081381;28;20035;-88
2021/01/21 12:54:40;;;;;;;12.88;2.90;;;8.80;99.90;;;;;;5080490;28;20031;-88